Time;durP1;ratioP1;P1;durP2;ratioP2;P2;SDS_P1;SDS_P2;PMS_P1;PMS_P2;Temp;Humidity;BMP_temperature;BMP_pressure;BME280_temperature;BME280_humidity;BME280_pressure;Samples;Min_cycle;Max_cycle;Signal;HPM_P1;HPM_P2
2022/12/29 00:00:38;;;;;;;3.07;2.30;;;;;;;10.91;77.53;97680.38;4094692;28;21076;-89
2022/12/29 00:02:42;;;;;;;4.67;2.40;;;;;;;10.94;77.09;97679.31;4079282;29;20653;-89
2022/12/29 00:04:45;;;;;;;3.83;2.07;;;;;;;10.97;76.02;97673.88;4095960;28;20707;-90
2022/12/29 00:06:48;;;;;;;2.67;2.27;;;;;;;11.07;76.01;97677.44;4093404;29;20641;-90
2022/12/29 00:08:54;;;;;;;3.00;2.13;;;;;;;11.09;75.76;97665.91;4090631;28;21268;-90
2022/12/29 00:10:57;;;;;;;4.37;1.80;;;;;;;11.12;77.11;97668.28;4111018;28;20646;-90
2022/12/29 00:15:39;;;;;;;2.57;1.93;;;;;;;11.17;76.93;97667.94;4089298;28;20691;-89
2022/12/29 00:17:44;;;;;;;4.07;2.17;;;;;;;11.18;75.64;97656.56;4089414;28;20696;-90
2022/12/29 00:36:28;;;;;;;2.93;2.13;;;;;;;11.41;75.02;97641.59;4094641;28;21125;-90
2022/12/29 00:46:22;;;;;;;3.83;2.00;;;;;;;11.54;74.81;97642.31;4090647;28;21004;-91
2022/12/29 00:51:11;;;;;;;2.70;1.93;;;;;;;11.53;75.56;97630.22;4103308;28;21191;-88
2022/12/29 00:53:16;;;;;;;3.50;1.83;;;;;;;11.55;74.88;97630.91;4089258;29;20633;-90
2022/12/29 00:55:19;;;;;;;2.53;1.90;;;;;;;11.60;75.34;97633.16;4089807;28;20696;-91
2022/12/29 00:57:22;;;;;;;3.27;2.10;;;;;;;11.60;75.70;97638.38;4077398;29;21465;-91
2022/12/29 00:59:25;;;;;;;4.37;2.27;;;;;;;11.63;74.42;97640.75;4105424;28;20675;-88
2022/12/29 01:01:29;;;;;;;1.80;1.50;;;;;;;11.65;74.80;97633.63;4090268;28;21122;-90
2022/12/29 01:03:33;;;;;;;3.67;2.07;;;;;;;11.68;73.64;97636.00;4092907;28;20641;-89
2022/12/29 01:05:37;;;;;;;3.80;1.93;;;;;;;11.70;74.07;97642.75;4091938;29;20642;-90
2022/12/29 01:07:43;;;;;;;3.23;1.87;;;;;;;11.72;73.49;97640.03;4106432;28;20663;-90
2022/12/29 01:12:07;;;;;;;2.17;1.63;;;;;;;11.75;72.62;97640.59;4106044;28;20636;-90
2022/12/29 01:14:26;;;;;;;2.60;1.77;;;;;;;11.77;73.40;97643.91;4090981;28;20680;-88
2022/12/29 01:16:29;;;;;;;3.30;1.90;;;;;;;11.75;73.42;97649.25;4091821;28;20658;-89
2022/12/29 01:18:33;;;;;;;2.57;2.00;;;;;;;11.77;74.08;97644.75;4080373;29;21069;-90
2022/12/29 01:20:36;;;;;;;2.90;2.03;;;;;;;11.79;73.32;97648.06;4075210;29;20726;-90
2022/12/29 01:22:42;;;;;;;2.90;2.10;;;;;;;11.79;73.76;97648.06;4105587;28;21265;-89
2022/12/29 01:24:55;;;;;;;5.20;1.67;;;;;;;11.76;75.09;97643.09;4075283;29;20630;-89
2022/12/29 01:26:58;;;;;;;2.50;2.10;;;;;;;11.81;72.60;97655.78;4092613;28;20668;-90
2022/12/29 01:29:01;;;;;;;2.90;1.57;;;;;;;11.80;74.83;97657.59;4091555;28;21109;-90
2022/12/29 01:31:04;;;;;;;4.67;2.10;;;;;;;11.78;72.79;97654.25;4109444;28;20628;-90
2022/12/29 01:33:07;;;;;;;5.40;1.93;;;;;;;11.79;73.91;97657.69;4091166;28;20714;-89
2022/12/29 01:35:11;;;;;;;3.63;2.00;;;;;;;11.80;73.85;97656.72;4097494;28;20731;-90
2022/12/29 01:37:14;;;;;;;3.30;1.53;;;;;;;11.80;75.03;97656.72;4104717;28;20655;-90
2022/12/29 01:39:18;;;;;;;4.60;1.80;;;;;;;11.77;74.98;97664.81;4092808;28;20649;-90
2022/12/29 01:41:22;;;;;;;3.57;2.20;;;;;;;11.75;73.33;97657.09;4104454;28;20648;-91
2022/12/29 01:43:40;;;;;;;3.73;2.20;;;;;;;11.77;73.79;97660.44;4095843;28;20740;-91
2022/12/29 01:45:49;;;;;;;3.80;1.83;;;;;;;11.76;73.49;97653.53;4076818;29;20784;-89
2022/12/29 01:47:56;;;;;;;2.23;1.93;;;;;;;11.75;73.59;97658.88;4092623;28;21308;-90
2022/12/29 01:50:02;;;;;;;2.50;1.73;;;;;;;11.73;74.02;97657.34;4106087;28;20668;-90
2022/12/29 01:52:07;;;;;;;4.30;2.23;;;;;;;11.70;73.69;97661.03;4088050;28;20636;-90
2022/12/29 01:54:12;;;;;;;5.60;2.47;;;;;;;11.69;74.58;97655.94;4076230;29;20632;-90
2022/12/29 01:56:18;;;;;;;4.40;2.10;;;;;;;11.67;73.95;97658.69;4093362;28;20636;-89
2022/12/29 01:58:24;;;;;;;3.80;2.17;;;;;;;11.68;75.00;97659.50;4085929;28;20668;-90
2022/12/29 02:00:27;;;;;;;3.30;1.80;;;;;;;11.66;75.27;97653.56;4079977;29;25639;-90
2022/12/29 02:02:31;;;;;;;2.50;1.90;;;;;;;11.66;73.48;97650.97;4075867;29;20657;-90
2022/12/29 02:04:36;;;;;;;3.20;1.90;;;;;;;11.67;74.26;97647.41;4099387;28;21386;-88
2022/12/29 02:06:42;;;;;;;5.63;1.80;;;;;;;11.65;75.29;97654.50;4074433;29;20635;-89
2022/12/29 02:08:57;;;;;;;4.03;1.80;;;;;;;11.64;74.40;97645.84;4091720;28;21091;-89
2022/12/29 02:11:01;;;;;;;5.13;1.90;;;;;;;11.66;75.75;97653.56;4094071;28;20633;-90
2022/12/29 02:13:09;;;;;;;2.47;1.60;;;;;;;11.65;74.40;97649.28;4093575;28;21439;-90
2022/12/29 02:15:15;;;;;;;2.93;1.90;;;;;;;11.63;74.20;97646.81;4085438;28;20637;-90
2022/12/29 02:17:23;;;;;;;2.80;1.90;;;;;;;11.66;74.43;97650.97;4091713;28;20776;-90
2022/12/29 02:19:48;;;;;;;2.33;1.77;;;;;;;11.65;75.52;97644.91;4083755;29;20843;-90
2022/12/29 02:22:02;;;;;;;3.03;1.67;;;;;;;11.65;73.80;97634.47;4089431;28;20646;-90
2022/12/29 02:24:45;;;;;;;3.43;1.83;;;;;;;11.62;73.62;97639.94;4109684;28;20644;-90
2022/12/29 02:27:02;;;;;;;2.73;1.57;;;;;;;11.61;74.47;97627.00;4060002;29;20637;-90
2022/12/29 02:29:41;;;;;;;2.70;1.70;;;;;;;11.64;74.63;97624.16;4092706;28;21281;-89
2022/12/29 02:31:47;;;;;;;2.70;1.50;;;;;;;11.65;74.19;97626.63;4091593;28;20624;-90
2022/12/29 02:34:03;;;;;;;2.87;1.80;;;;;;;11.67;74.93;97632.56;4094801;28;20624;-90
2022/12/29 02:36:13;;;;;;;2.87;1.67;;;;;;;11.71;74.34;97627.91;4108739;28;21194;-89
2022/12/29 02:38:21;;;;;;;4.13;1.90;;;;;;;11.72;73.70;97633.00;4091308;28;21296;-90
2022/12/29 02:40:28;;;;;;;3.70;2.00;;;;;;;11.73;74.55;97637.28;4094041;28;20628;-90
2022/12/29 02:42:36;;;;;;;4.60;1.97;;;;;;;11.74;73.70;97620.66;4094953;28;20640;-90
2022/12/29 02:44:47;;;;;;;3.77;2.17;;;;;;;11.76;74.71;97614.34;4078887;29;20659;-90
2022/12/29 02:46:55;;;;;;;4.53;1.30;;;;;;;11.81;72.44;97624.44;4093287;28;21276;-90
2022/12/29 02:49:04;;;;;;;2.67;1.57;;;;;;;11.85;73.53;97620.63;4078593;29;22136;-90
2022/12/29 02:51:10;;;;;;;1.90;1.57;;;;;;;11.88;73.68;97621.19;4107782;28;20677;-90
2022/12/29 02:53:16;;;;;;;2.30;1.50;;;;;;;11.92;73.12;97627.00;4094625;28;20632;-90
2022/12/29 02:55:18;;;;;;;2.57;1.57;;;;;;;11.95;73.01;97625.00;4096210;28;20632;-90
2022/12/29 02:57:30;;;;;;;2.70;1.70;;;;;;;11.95;72.74;97625.00;4107574;28;21066;-90
2022/12/29 02:59:33;;;;;;;3.37;1.50;;;;;;;11.97;73.85;97620.47;4092596;29;20715;-89
2022/12/29 03:02:16;;;;;;;2.60;1.53;;;;;;;12.00;72.62;97620.22;4092484;28;21180;-90
2022/12/29 03:04:27;;;;;;;5.70;1.70;;;;;;;12.03;73.16;97625.19;4106686;28;21100;-89
2022/12/29 03:06:36;;;;;;;2.53;1.63;;;;;;;12.04;72.46;97621.63;4092369;28;20652;-88
2022/12/29 03:09:01;;;;;;;2.83;1.80;;;;;;;12.06;72.20;97624.13;4096149;28;21203;-90
2022/12/29 03:12:07;;;;;;;3.13;1.43;;;;;;;12.03;72.95;97617.34;4088644;28;20633;-90
2022/12/29 03:16:04;;;;;;;3.97;2.40;;;;;;;12.06;73.73;97617.09;4094236;28;20653;-90
2022/12/29 03:18:12;;;;;;;3.70;1.70;;;;;;;12.04;73.88;97613.78;4096183;28;20694;-90
2022/12/29 03:20:20;;;;;;;2.63;1.50;;;;;;;12.07;72.54;97617.91;4095783;28;20708;-90
2022/12/29 03:22:30;;;;;;;3.57;1.50;;;;;;;12.05;73.16;97609.38;4077778;29;20655;-90
2022/12/29 03:24:44;;;;;;;2.20;1.20;;;;;;;12.05;73.60;97601.53;4105145;28;20718;-90
2022/12/29 03:26:48;;;;;;;2.97;1.47;;;;;;;12.05;72.72;97604.97;4079582;29;21296;-90
2022/12/29 03:28:54;;;;;;;4.60;2.07;;;;;;;12.08;72.45;97611.75;4093971;28;20684;-89
2022/12/29 03:31:00;;;;;;;3.57;1.77;;;;;;;12.08;73.40;97606.53;4092752;28;20647;-89
2022/12/29 03:33:08;;;;;;;4.30;1.60;;;;;;;12.10;73.03;97594.16;4095220;28;20702;-90
2022/12/29 03:35:17;;;;;;;2.73;1.83;;;;;;;12.12;72.87;97595.69;4092463;28;20632;-91
2022/12/29 03:37:25;;;;;;;3.37;1.60;;;;;;;12.14;72.24;97603.41;4084622;28;20647;-89
2022/12/29 03:39:28;;;;;;;2.37;2.00;;;;;;;12.16;73.65;97610.16;4108823;28;20660;-89
2022/12/29 03:41:33;;;;;;;2.83;1.40;;;;;;;12.21;72.45;97601.91;4101234;28;20670;-90
2022/12/29 03:43:38;;;;;;;2.27;1.47;;;;;;;12.21;72.13;97594.94;4078881;29;20674;-89
2022/12/29 03:45:42;;;;;;;2.80;1.80;;;;;;;12.24;71.97;97592.06;4093253;28;20680;-89
2022/12/29 03:47:46;;;;;;;3.87;1.60;;;;;;;12.27;71.68;97600.47;4097428;28;20648;-89
2022/12/29 03:49:55;;;;;;;3.87;1.87;;;;;;;12.30;72.87;97596.78;4090207;28;20665;-89
2022/12/29 03:52:00;;;;;;;2.10;1.60;;;;;;;12.32;72.79;97597.47;4093972;28;20654;-90
2022/12/29 03:54:04;;;;;;;4.00;1.60;;;;;;;12.35;72.41;97600.66;4104261;28;21321;-90
2022/12/29 03:56:07;;;;;;;2.20;1.20;;;;;;;12.36;72.64;97594.47;4077720;29;20713;-90
2022/12/29 03:58:11;;;;;;;4.03;1.60;;;;;;;12.35;71.53;97590.19;4087345;29;21046;-88
2022/12/29 04:00:52;;;;;;;3.20;1.77;;;;;;;12.35;71.25;97582.34;4073068;28;20732;-88
2022/12/29 04:02:56;;;;;;;3.50;1.90;;;;;;;12.37;71.56;97584.84;4096318;28;20647;-90
2022/12/29 04:04:59;;;;;;;3.80;1.50;;;;;;;12.34;72.01;97590.31;4094333;28;20645;-89
2022/12/29 04:07:04;;;;;;;3.50;1.83;;;;;;;12.33;73.35;97591.31;4084089;29;20686;-89
2022/12/29 04:09:08;;;;;;;4.73;1.80;;;;;;;12.34;72.52;97585.09;4080858;28;20667;-90
2022/12/29 04:11:16;;;;;;;7.60;1.80;;;;;;;12.32;73.64;97597.47;4091863;28;20634;-90
2022/12/29 04:13:20;;;;;;;2.40;1.40;;;;;;;12.33;73.18;97596.53;4088782;28;20639;-89
2022/12/29 04:15:26;;;;;;;4.63;1.77;;;;;;;12.35;71.72;97594.59;4107626;28;20712;-89
2022/12/29 04:17:29;;;;;;;4.60;1.60;;;;;;;12.32;72.17;97595.69;4104516;28;20641;-90
2022/12/29 04:19:32;;;;;;;3.17;1.50;;;;;;;12.31;73.11;97595.81;4092632;29;21089;-90
2022/12/29 04:21:35;;;;;;;2.47;1.23;;;;;;;12.32;73.58;97600.91;4091362;28;21277;-91
2022/12/29 04:23:41;;;;;;;4.20;1.57;;;;;;;12.33;72.65;97591.31;4072848;29;21246;-90
2022/12/29 04:25:47;;;;;;;3.00;1.80;;;;;;;12.35;72.18;97605.88;4091415;28;20627;-90
2022/12/29 04:27:50;;;;;;;3.93;1.60;;;;;;;12.34;74.00;97604.25;4092676;28;20673;-90
2022/12/29 04:30:12;;;;;;;4.30;1.50;;;;;;;12.31;72.83;97614.97;4093437;28;20642;-88
2022/12/29 04:32:52;;;;;;;4.10;1.60;;;;;;;12.29;72.90;97610.81;4084176;28;20656;-89
2022/12/29 04:34:55;;;;;;;4.13;1.57;;;;;;;12.31;72.54;97619.34;4091696;29;21230;-89
2022/12/29 04:36:58;;;;;;;2.80;1.80;;;;;;;12.31;72.92;97619.34;4088424;28;20736;-89
2022/12/29 04:39:04;;;;;;;2.00;1.50;;;;;;;12.31;73.82;97612.34;4093029;28;20641;-90
2022/12/29 04:41:07;;;;;;;3.90;1.77;;;;;;;12.30;73.29;97612.47;4092324;28;20630;-90
2022/12/29 04:43:14;;;;;;;2.90;1.80;;;;;;;12.30;73.55;97608.06;4091477;28;20677;-90
2022/12/29 04:45:39;;;;;;;3.90;1.40;;;;;;;12.27;73.95;97610.13;4078411;29;20749;-90
2022/12/29 04:47:51;;;;;;;9.40;2.60;;;;;;;12.24;73.68;97598.09;4094197;28;21245;-90
2022/12/29 04:50:13;;;;;;;1.90;1.40;;;;;;;12.23;73.96;97600.03;4090098;28;20642;-90
2022/12/29 04:52:19;;;;;;;4.63;1.40;;;;;;;12.23;75.18;97586.97;4105440;28;20732;-90
2022/12/29 04:54:27;;;;;;;3.07;1.90;;;;;;;12.22;73.44;97590.53;4095091;28;20653;-89
2022/12/29 04:56:38;;;;;;;4.70;1.93;;;;;;;12.21;73.96;97581.00;4110389;28;20665;-90
2022/12/29 04:58:46;;;;;;;4.10;1.50;;;;;;;12.17;75.20;97579.63;4078607;29;21011;-91
2022/12/29 05:00:49;;;;;;;2.20;1.53;;;;;;;12.09;74.54;97585.47;4079304;29;20708;-90
2022/12/29 05:02:53;;;;;;;2.93;1.60;;;;;;;12.04;76.32;97584.19;4075336;29;20760;-90
2022/12/29 05:04:57;;;;;;;6.77;1.90;;;;;;;12.00;75.35;97588.84;4075821;29;20637;-91
2022/12/29 05:07:01;;;;;;;3.40;1.70;;;;;;;11.99;74.75;97581.13;4106672;28;20640;-90
2022/12/29 05:09:05;;;;;;;2.50;1.80;;;;;;;12.02;74.95;97586.94;4078043;28;20659;-90
2022/12/29 05:11:10;;;;;;;3.70;1.70;;;;;;;12.00;75.79;97585.41;4073208;29;20630;-90
2022/12/29 05:13:13;;;;;;;4.17;1.73;;;;;;;12.03;76.42;97582.56;4080957;29;21291;-90
2022/12/29 05:15:18;;;;;;;2.47;1.47;;;;;;;12.00;75.53;97578.41;4071423;29;20685;-90
2022/12/29 05:17:21;;;;;;;3.47;1.87;;;;;;;12.00;76.14;97580.19;4079348;29;20666;-89
2022/12/29 05:19:24;;;;;;;2.40;1.50;;;;;;;11.96;75.73;97576.16;4076692;29;20654;-90
2022/12/29 05:21:28;;;;;;;2.80;1.40;;;;;;;11.90;76.74;97574.03;4089686;28;20740;-90
2022/12/29 05:23:32;;;;;;;3.03;1.50;;;;;;;11.89;76.31;97564.53;4082945;28;21209;-90
2022/12/29 05:25:40;;;;;;;3.30;1.87;;;;;;;11.87;76.70;97572.50;4078885;29;20633;-89
2022/12/29 05:27:53;;;;;;;2.60;1.60;;;;;;;11.83;77.72;97571.13;4086503;28;20672;-89
2022/12/29 05:30:19;;;;;;;2.27;1.50;;;;;;;11.81;77.32;97570.38;4081528;28;20693;-89
2022/12/29 05:32:23;;;;;;;2.60;1.70;;;;;;;11.76;76.47;97559.50;4111025;28;20640;-89
2022/12/29 05:34:42;;;;;;;2.70;1.90;;;;;;;11.75;77.54;97557.81;4089651;28;20736;-90
2022/12/29 05:36:45;;;;;;;4.10;1.53;;;;;;;11.73;78.42;97564.16;4074282;29;20634;-88
2022/12/29 05:38:50;;;;;;;2.90;1.73;;;;;;;11.70;78.29;97571.38;4090890;28;20625;-90
2022/12/29 05:40:53;;;;;;;2.60;1.97;;;;;;;11.69;79.54;97582.81;4101496;28;20671;-90
2022/12/29 05:43:25;;;;;;;2.47;1.67;;;;;;;11.69;79.58;97588.03;4091145;28;20728;-89
2022/12/29 05:46:06;;;;;;;4.37;2.00;;;;;;;11.70;79.33;97587.06;4089713;28;20637;-89
2022/12/29 05:48:59;;;;;;;3.43;2.20;;;;;;;11.69;80.04;97585.41;4025724;29;20639;-90
2022/12/29 05:51:12;;;;;;;2.33;1.50;;;;;;;11.70;78.86;97589.66;4021389;29;20738;-88
2022/12/29 05:53:23;;;;;;;2.40;1.90;;;;;;;11.72;79.09;97566.88;4041459;29;20637;-90
2022/12/29 05:55:26;;;;;;;2.57;1.73;;;;;;;11.72;78.57;97577.34;4095845;28;20736;-91
2022/12/29 05:57:29;;;;;;;3.00;1.70;;;;;;;11.75;77.86;97581.34;4093255;28;21231;-90
2022/12/29 05:59:41;;;;;;;5.50;1.93;;;;;;;11.78;78.09;97575.84;4085812;28;20679;-90
2022/12/29 06:01:45;;;;;;;3.70;1.97;;;;;;;11.79;78.32;97580.13;4107814;28;20632;-89
2022/12/29 06:03:48;;;;;;;3.07;1.80;;;;;;;11.80;78.45;97575.72;4096686;28;20634;-89
2022/12/29 06:05:55;;;;;;;3.17;1.90;;;;;;;11.82;79.09;97574.66;4095520;28;20642;-91
2022/12/29 06:07:58;;;;;;;3.50;1.70;;;;;;;11.88;79.79;97587.22;4094411;28;20637;-90
2022/12/29 06:10:01;;;;;;;2.77;1.90;;;;;;;11.88;78.98;97576.78;4077949;29;20638;-90
2022/12/29 06:12:08;;;;;;;2.97;2.17;;;;;;;11.93;78.26;97571.19;4093667;28;20780;-90
2022/12/29 06:14:13;;;;;;;2.63;1.87;;;;;;;11.95;78.90;97572.72;4079158;29;20648;-89
2022/12/29 06:16:19;;;;;;;3.00;1.70;;;;;;;11.97;76.77;97562.97;4093586;28;20656;-90
2022/12/29 06:18:26;;;;;;;3.43;2.20;;;;;;;12.03;76.87;97561.66;4092518;28;20647;-89
2022/12/29 06:20:29;;;;;;;4.33;2.27;;;;;;;12.04;76.76;97561.53;4092827;28;20664;-91
2022/12/29 06:22:32;;;;;;;3.77;1.93;;;;;;;12.02;76.67;97566.03;4095180;28;20637;-91
2022/12/29 06:24:39;;;;;;;3.00;1.83;;;;;;;12.06;77.08;97570.06;4094095;28;20638;-91
2022/12/29 06:26:42;;;;;;;4.03;1.73;;;;;;;12.03;76.50;97570.31;4106558;28;21231;-90
2022/12/29 06:28:45;;;;;;;3.80;1.90;;;;;;;12.07;76.73;97561.25;4090734;28;20732;-90
2022/12/29 06:30:49;;;;;;;4.30;1.83;;;;;;;12.08;77.69;97570.75;4089163;28;20638;-91
2022/12/29 06:32:54;;;;;;;3.83;2.27;;;;;;;12.04;75.85;97574.59;4079482;29;21458;-90
2022/12/29 06:34:59;;;;;;;4.40;1.87;;;;;;;12.00;77.25;97570.56;4101685;28;21078;-91
2022/12/29 06:37:03;;;;;;;2.37;1.47;;;;;;;11.98;76.81;97574.25;4094770;28;20637;-90
2022/12/29 06:39:06;;;;;;;2.47;1.73;;;;;;;12.00;77.05;97577.56;4107559;28;20744;-90
2022/12/29 06:41:10;;;;;;;2.47;1.60;;;;;;;11.98;76.01;97577.69;4091289;28;20749;-90
2022/12/29 06:43:47;;;;;;;2.97;2.07;;;;;;;11.94;78.03;97576.28;4104846;28;20743;-90
2022/12/29 06:46:17;;;;;;;2.60;1.70;;;;;;;11.94;77.09;97575.47;4089462;28;21081;-93
2022/12/29 06:48:22;;;;;;;3.13;1.83;;;;;;;11.92;77.22;97572.13;4094752;28;20712;-93
2022/12/29 06:50:25;;;;;;;2.10;1.80;;;;;;;11.95;77.83;97570.13;4098397;28;20679;-96
2022/12/29 06:52:29;;;;;;;27.20;24.50;;;;;;;11.97;77.10;97572.59;4112331;28;21109;-94
2022/12/29 06:54:32;;;;;;;4.73;3.73;;;;;;;11.97;77.19;97564.75;4089746;28;20641;-93
2022/12/29 06:56:37;;;;;;;5.93;4.43;;;;;;;11.98;77.72;97571.63;4077006;29;21058;-92
2022/12/29 06:58:49;;;;;;;38.37;31.83;;;;;;;11.98;77.74;97575.09;4088831;28;21028;-88
2022/12/29 07:00:52;;;;;;;7.03;6.30;;;;;;;11.99;76.92;97571.50;4091349;28;20696;-91
2022/12/29 07:02:55;;;;;;;16.13;14.40;;;;;;;12.00;76.25;97573.16;4080746;29;20631;-90
2022/12/29 07:05:00;;;;;;;10.60;7.13;;;;;;;11.99;76.77;97568.06;4094611;28;21232;-90
2022/12/29 07:07:04;;;;;;;3.90;3.20;;;;;;;11.99;76.62;97576.72;4091040;28;20677;-92
2022/12/29 07:09:08;;;;;;;23.33;20.93;;;;;;;12.00;76.90;97567.94;4081696;29;21297;-93
2022/12/29 07:11:11;;;;;;;6.03;5.43;;;;;;;11.94;77.43;97562.41;4090941;28;20655;-92
2022/12/29 07:13:14;;;;;;;8.23;7.47;;;;;;;11.97;77.19;97570.81;4089153;28;21448;-90
2022/12/29 07:15:19;;;;;;;8.57;5.70;;;;;;;12.00;75.45;97580.19;4050656;28;1244175;-93
2022/12/29 07:17:22;;;;;;;7.20;5.43;;;;;;;12.01;75.76;97572.22;4081653;29;21225;-91
2022/12/29 07:19:28;;;;;;;3.43;2.60;;;;;;;12.03;75.83;97572.91;4081317;29;20661;-92
2022/12/29 07:21:32;;;;;;;4.07;3.10;;;;;;;12.02;76.40;97576.47;4092141;28;20700;-94
2022/12/29 07:23:35;;;;;;;4.10;2.80;;;;;;;12.00;75.95;97569.72;4091345;28;21035;-88
2022/12/29 07:25:40;;;;;;;7.77;6.97;;;;;;;12.00;76.15;97562.72;4108295;28;20656;-88
2022/12/29 07:27:43;;;;;;;14.10;12.67;;;;;;;12.04;76.86;97573.72;4104129;28;20731;-89
2022/12/29 07:29:55;;;;;;;5.87;3.80;;;;;;;12.05;76.76;97568.38;4092571;28;20717;-88
2022/12/29 07:31:58;;;;;;;3.77;2.60;;;;;;;12.06;74.94;97567.44;4106264;28;20671;-89
2022/12/29 07:34:02;;;;;;;3.00;2.20;;;;;;;12.04;75.80;97577.19;4096965;28;20644;-89
2022/12/29 07:36:06;;;;;;;11.77;7.10;;;;;;;12.09;74.77;97572.41;4091949;28;20634;-87
2022/12/29 07:38:10;;;;;;;3.97;2.23;;;;;;;12.06;75.19;97572.66;4102717;28;20646;-89
2022/12/29 07:40:14;;;;;;;2.93;2.63;;;;;;;12.10;74.97;97579.28;4072099;29;20639;-91
2022/12/29 07:42:17;;;;;;;2.57;2.00;;;;;;;12.12;75.88;97577.38;4090575;28;21223;-91
2022/12/29 07:44:28;;;;;;;6.40;3.20;;;;;;;12.14;75.23;97580.69;4092879;28;20675;-92
2022/12/29 07:46:48;;;;;;;2.67;1.80;;;;;;;12.14;75.74;97585.91;4107707;28;20648;-93
2022/12/29 07:48:59;;;;;;;4.07;2.50;;;;;;;12.18;75.93;97581.25;4106196;28;21395;-91
2022/12/29 07:51:03;;;;;;;5.33;3.10;;;;;;;12.14;75.32;97580.69;4094160;28;20752;-88
2022/12/29 07:53:06;;;;;;;6.27;2.27;;;;;;;12.16;75.44;97580.56;4092433;28;20673;-94
2022/12/29 07:55:11;;;;;;;4.87;2.53;;;;;;;12.20;75.38;97579.38;4109477;28;20677;-90
2022/12/29 07:57:14;;;;;;;6.40;3.17;;;;;;;12.20;74.79;97580.19;4091200;29;20638;-91
2022/12/29 07:59:17;;;;;;;4.93;2.30;;;;;;;12.23;75.17;97584.34;4096425;28;20736;-91
2022/12/29 08:01:21;;;;;;;16.80;9.47;;;;;;;12.25;74.79;97588.47;4105306;28;20659;-89
2022/12/29 08:03:25;;;;;;;12.60;7.07;;;;;;;12.27;75.39;97583.97;4092993;28;21074;-88
2022/12/29 08:05:28;;;;;;;16.40;11.77;;;;;;;12.28;75.87;97588.22;4088233;29;20719;-90
2022/12/29 08:07:32;;;;;;;4.20;2.07;;;;;;;12.31;75.75;97590.56;4093205;28;20646;-92
2022/12/29 08:09:35;;;;;;;4.67;3.00;;;;;;;12.30;75.45;97575.88;4088424;28;20709;-91
2022/12/29 08:11:40;;;;;;;9.10;5.33;;;;;;;12.35;74.72;97594.59;4107061;28;20684;-91
2022/12/29 08:13:46;;;;;;;6.50;4.27;;;;;;;12.38;75.01;97604.81;4090258;28;20998;-91
2022/12/29 08:15:49;;;;;;;4.20;1.90;;;;;;;12.39;76.09;97590.78;4088231;28;20708;-90
2022/12/29 08:17:53;;;;;;;4.40;3.10;;;;;;;12.41;74.90;97599.31;4075015;29;21246;-91
2022/12/29 08:19:56;;;;;;;3.33;2.20;;;;;;;12.40;74.83;97592.44;4091734;28;20638;-90
2022/12/29 08:21:59;;;;;;;5.23;4.33;;;;;;;12.42;75.00;97601.00;4082469;29;21149;-89
2022/12/29 08:24:02;;;;;;;2.43;1.93;;;;;;;12.45;74.72;97596.34;4091727;28;20648;-90
2022/12/29 08:26:06;;;;;;;20.97;11.00;;;;;;;12.43;75.52;97597.41;4070539;29;20647;-93
2022/12/29 08:28:11;;;;;;;81.70;42.63;;;;;;;12.46;74.67;97605.84;4077879;29;20630;-92
2022/12/29 08:30:14;;;;;;;69.90;31.27;;;;;;;12.48;76.04;97597.84;4092475;28;20715;-92
2022/12/29 08:32:18;;;;;;;106.97;42.90;;;;;;;12.47;75.46;97598.81;4093371;28;20625;-93
2022/12/29 08:34:21;;;;;;;15.57;8.37;;;;;;;12.52;73.94;97604.47;4091316;28;21297;-93
2022/12/29 08:36:24;;;;;;;2.60;1.77;;;;;;;12.58;74.12;97601.34;4076461;29;20653;-93
2022/12/29 08:40:48;;;;;;;14.87;12.00;;;;;;;12.63;74.30;97597.41;4091712;28;20626;-91
2022/12/29 08:42:51;;;;;;;5.60;4.33;;;;;;;12.68;73.91;97603.88;4093344;28;20658;-94
2022/12/29 08:44:56;;;;;;;2.77;2.20;;;;;;;12.69;73.80;97600.31;4109024;28;20645;-94
2022/12/29 08:46:59;;;;;;;4.13;2.20;;;;;;;12.74;73.63;97603.38;4099578;28;22205;-94
2022/12/29 08:49:02;;;;;;;4.20;3.60;;;;;;;12.76;73.64;97601.47;4092483;28;21147;-93
2022/12/29 08:51:05;;;;;;;5.90;3.57;;;;;;;12.74;74.02;97592.09;4101661;28;20646;-91
2022/12/29 08:53:09;;;;;;;4.40;3.03;;;;;;;12.72;74.31;97589.59;4087186;28;20638;-92
2022/12/29 08:55:21;;;;;;;8.50;4.60;;;;;;;12.81;74.07;97599.28;4076083;29;20633;-90
2022/12/29 08:57:26;;;;;;;4.23;2.73;;;;;;;12.84;74.10;97598.25;4097208;28;20646;-94
2022/12/29 08:59:38;;;;;;;6.70;5.17;;;;;;;12.81;74.46;97601.91;4077151;29;20631;-93
2022/12/29 09:01:46;;;;;;;8.47;5.70;;;;;;;12.84;73.47;97609.53;4103652;28;20696;-94
2022/12/29 09:03:50;;;;;;;3.70;2.53;;;;;;;12.86;73.16;97614.63;4090618;28;21193;-94
2022/12/29 09:06:18;;;;;;;4.20;2.50;;;;;;;12.89;73.79;97620.44;4098503;28;21115;-93
2022/12/29 09:08:22;;;;;;;5.43;2.20;;;;;;;12.88;72.86;97618.75;4083452;28;20774;-93
2022/12/29 09:10:29;;;;;;;3.00;2.40;;;;;;;12.90;73.18;97624.72;4081691;28;21298;-95
2022/12/29 09:12:32;;;;;;;2.10;1.70;;;;;;;12.90;73.67;97621.25;4087915;28;20740;-93
2022/12/29 09:14:38;;;;;;;4.10;2.20;;;;;;;12.95;73.80;97626.94;4085865;28;20649;-91
2022/12/29 09:19:18;;;;;;;4.07;2.80;;;;;;;12.99;73.45;97633.56;4105743;28;20790;-93
2022/12/29 09:21:21;;;;;;;6.73;4.13;;;;;;;12.96;74.38;97631.19;4089406;28;20761;-92
2022/12/29 09:23:25;;;;;;;5.77;3.70;;;;;;;12.96;73.30;97624.19;4083799;29;21290;-91
2022/12/29 09:25:29;;;;;;;4.20;2.20;;;;;;;13.00;73.69;97638.66;4088596;28;20752;-92
2022/12/29 09:27:32;;;;;;;3.53;2.10;;;;;;;12.98;73.83;97643.22;4093829;28;20637;-90
2022/12/29 09:29:35;;;;;;;5.23;2.43;;;;;;;12.98;74.49;97643.22;4090641;28;20634;-90
2022/12/29 09:31:38;;;;;;;6.53;4.30;;;;;;;12.97;74.05;97640.72;4091279;28;20670;-92
2022/12/29 09:33:50;;;;;;;4.67;2.27;;;;;;;12.96;73.81;97639.91;4092034;28;20673;-90
2022/12/29 09:35:56;;;;;;;2.90;2.20;;;;;;;12.92;75.09;97646.34;4105142;28;20645;-89
2022/12/29 09:37:59;;;;;;;2.40;1.77;;;;;;;12.95;75.06;97642.66;4109441;28;20763;-91
2022/12/29 09:40:02;;;;;;;4.37;2.67;;;;;;;12.97;74.72;97640.72;4097185;28;20641;-92
2022/12/29 09:42:09;;;;;;;3.37;2.33;;;;;;;12.98;74.54;97642.38;4091431;28;20732;-89
2022/12/29 09:44:21;;;;;;;3.70;2.37;;;;;;;12.99;73.92;97639.66;4089639;28;20641;-90
2022/12/29 09:46:26;;;;;;;2.23;1.63;;;;;;;13.04;73.77;97639.25;4089670;28;20638;-90
2022/12/29 09:48:33;;;;;;;5.67;4.10;;;;;;;13.06;73.49;97640.75;4090895;28;20700;-90
2022/12/29 09:50:38;;;;;;;2.47;1.90;;;;;;;13.06;74.55;97634.72;4087771;28;20650;-90
2022/12/29 09:52:47;;;;;;;6.13;3.47;;;;;;;13.04;73.81;97634.84;4083636;28;20642;-90
2022/12/29 09:54:55;;;;;;;4.40;3.10;;;;;;;13.09;74.25;97637.06;4102942;28;20675;-91
2022/12/29 09:57:15;;;;;;;9.47;4.70;;;;;;;13.18;73.63;97638.91;4103312;28;20641;-90
2022/12/29 09:59:23;;;;;;;5.40;3.03;;;;;;;13.19;74.09;97639.59;4075352;29;21340;-91
2022/12/29 10:01:31;;;;;;;4.80;3.33;;;;;;;13.22;73.65;97635.88;4103096;28;20633;-92
2022/12/29 10:03:44;;;;;;;4.90;3.90;;;;;;;13.24;73.69;97633.94;4090262;28;20670;-89
2022/12/29 10:05:49;;;;;;;8.50;6.33;;;;;;;13.31;73.04;97629.84;4093930;28;20665;-92
2022/12/29 10:08:03;;;;;;;5.43;3.87;;;;;;;13.38;74.17;97630.97;4090923;28;20645;-93
2022/12/29 10:10:20;;;;;;;5.57;3.50;;;;;;;13.41;73.53;97630.69;4070324;29;20636;-91
2022/12/29 10:12:30;;;;;;;9.43;4.90;;;;;;;13.45;73.12;97624.25;4087534;28;20642;-95
2022/12/29 10:14:53;;;;;;;4.67;3.20;;;;;;;13.52;73.27;97626.19;4088516;28;20688;-93
2022/12/29 10:17:03;;;;;;;9.43;4.53;;;;;;;13.53;74.94;97624.38;4087424;28;20790;-93
2022/12/29 10:19:19;;;;;;;6.83;4.80;;;;;;;13.48;74.60;97629.22;4092157;28;20662;-94
2022/12/29 10:21:28;;;;;;;5.23;2.30;;;;;;;13.40;73.34;97634.28;4079281;29;20631;-92
2022/12/29 10:23:51;;;;;;;4.17;2.17;;;;;;;13.34;74.77;97634.81;4090492;28;21237;-93
2022/12/29 10:25:56;;;;;;;4.57;3.10;;;;;;;13.29;74.88;97637.84;4075377;29;21080;-91
2022/12/29 10:28:04;;;;;;;5.20;2.17;;;;;;;13.27;75.73;97633.69;4086257;28;20672;-91
2022/12/29 10:30:12;;;;;;;8.90;4.47;;;;;;;13.23;75.94;97629.69;4108246;28;20673;-93
2022/12/29 10:32:24;;;;;;;5.13;4.20;;;;;;;13.21;76.78;97628.97;4090057;28;20669;-88
2022/12/29 10:35:01;;;;;;;6.10;3.37;;;;;;;13.17;75.24;97632.00;4088606;28;21297;-87
2022/12/29 10:37:11;;;;;;;10.47;5.70;;;;;;;13.18;74.95;97650.19;4088659;28;20646;-88
2022/12/29 10:39:21;;;;;;;19.17;9.50;;;;;;;13.13;75.90;97633.22;4094480;28;20656;-88